createdAt,value
2022-10-18T00:00:54.672Z,123.18
2022-10-18T00:03:23.468Z,105.47
2022-10-18T00:05:53.292Z,99.18
2022-10-18T00:08:21.581Z,125.90
2022-10-18T00:10:50.072Z,146.98
2022-10-18T00:13:18.530Z,110.55
2022-10-18T00:15:50.633Z,147.02
2022-10-18T00:18:18.978Z,121.50
2022-10-18T00:20:46.969Z,130.40
2022-10-18T00:23:16.377Z,99.43
2022-10-18T00:25:44.348Z,109.95
2022-10-18T00:28:12.403Z,118.57
2022-10-18T00:30:40.375Z,101.53
2022-10-18T00:33:08.440Z,90.13
2022-10-18T00:35:36.465Z,120.90
2022-10-18T00:38:04.503Z,120.70
2022-10-18T00:40:34.258Z,110.68
2022-10-18T00:43:02.310Z,94.85
2022-10-18T00:45:30.598Z,108.07
2022-10-18T00:48:02.385Z,90.47
2022-10-18T00:50:34.211Z,82.88
2022-10-18T00:53:05.981Z,99.63
2022-10-18T00:55:35.628Z,75.97
2022-10-18T00:58:04.912Z,83.28
2022-10-18T01:00:34.746Z,92.15
2022-10-18T01:03:02.766Z,120.93
2022-10-18T01:05:30.829Z,97.13
2022-10-18T01:08:21.075Z,87.07
2022-10-18T01:11:01.619Z,91.10
2022-10-18T01:13:40.590Z,91.45
2022-10-18T01:16:15.776Z,89.15
2022-10-18T01:18:48.843Z,102.22
2022-10-18T01:21:31.181Z,107.93
2022-10-18T01:24:31.019Z,179.07
2022-10-18T01:27:23.947Z,79.15
2022-10-18T01:30:08.058Z,89.95
2022-10-18T01:32:42.563Z,135.15
2022-10-18T01:35:15.251Z,89.72
2022-10-18T01:37:46.805Z,132.50
2022-10-18T01:40:18.658Z,73.45
2022-10-18T01:42:48.842Z,142.77
2022-10-18T01:45:18.045Z,105.90
2022-10-18T01:47:48.335Z,101.85
2022-10-18T01:50:16.657Z,106.50
2022-10-18T01:52:52.030Z,100.68
2022-10-18T01:55:26.741Z,108.18
2022-10-18T01:58:00.485Z,135.95
2022-10-18T02:00:37.637Z,100.28
2022-10-18T02:03:14.685Z,92.75
2022-10-18T02:05:50.212Z,82.40
2022-10-18T02:08:26.217Z,83.50
2022-10-18T02:10:59.862Z,131.52
2022-10-18T02:13:32.753Z,106.90
2022-10-18T02:16:06.086Z,106.93
2022-10-18T02:18:40.390Z,87.38
2022-10-18T02:21:11.929Z,80.03
2022-10-18T02:23:40.325Z,93.63
2022-10-18T02:26:08.590Z,99.55
2022-10-18T02:28:36.650Z,147.40
2022-10-18T02:31:11.950Z,94.90
2022-10-18T02:33:47.721Z,100.13
2022-10-18T02:36:19.676Z,98.93
2022-10-18T02:38:49.399Z,87.43
2022-10-18T02:41:24.002Z,110.07
2022-10-18T02:43:52.018Z,119.35
2022-10-18T02:46:20.270Z,82.15
2022-10-18T02:48:49.844Z,78.90
2022-10-18T02:51:18.171Z,116.13
2022-10-18T02:53:46.203Z,79.13
2022-10-18T02:56:14.262Z,94.40
2022-10-18T02:58:42.249Z,83.70
2022-10-18T03:01:10.354Z,109.22
2022-10-18T03:03:38.371Z,113.85
2022-10-18T03:06:07.797Z,99.53
2022-10-18T03:08:37.109Z,167.40
2022-10-18T03:11:05.105Z,155.90
2022-10-18T03:13:34.301Z,109.85
2022-10-18T03:16:02.714Z,115.60
2022-10-18T03:18:30.770Z,239.32
2022-10-18T03:20:59.312Z,158.45
2022-10-18T03:23:28.694Z,178.90
2022-10-18T03:25:56.703Z,403.45
2022-10-18T03:28:24.731Z,548.92
2022-10-18T03:30:52.764Z,362.38
2022-10-18T03:33:20.849Z,512.13
2022-10-18T03:35:48.802Z,544.83
2022-10-18T03:38:16.785Z,630.65
2022-10-18T03:40:46.190Z,536.40
2022-10-18T03:43:14.198Z,529.30
2022-10-18T03:45:42.413Z,540.97
2022-10-18T03:48:10.428Z,569.15
2022-10-18T03:50:38.499Z,473.23
2022-10-18T03:53:06.557Z,464.80
2022-10-18T03:55:34.534Z,536.60
2022-10-18T03:58:04.074Z,527.60
2022-10-18T04:00:32.174Z,470.90
2022-10-18T04:03:00.233Z,483.40
2022-10-18T04:05:30.839Z,512.67
2022-10-18T04:07:59.012Z,534.58
2022-10-18T04:10:27.309Z,546.85
2022-10-18T04:12:55.659Z,546.35
2022-10-18T04:15:24.996Z,487.58
2022-10-18T04:17:52.966Z,438.85
2022-10-18T04:20:21.010Z,476.88
2022-10-18T04:22:49.626Z,426.77
2022-10-18T04:25:17.922Z,391.55
2022-10-18T04:27:45.881Z,446.48
2022-10-18T04:30:13.940Z,282.67
2022-10-18T04:32:43.298Z,395.80
2022-10-18T04:35:11.425Z,410.20
2022-10-18T04:37:39.397Z,213.02
2022-10-18T04:40:08.683Z,389.63
2022-10-18T04:42:36.720Z,214.95
2022-10-18T04:45:04.965Z,234.43
2022-10-18T04:47:33.198Z,266.58
2022-10-18T04:50:02.810Z,223.20
2022-10-18T04:52:30.835Z,192.05
2022-10-18T04:54:58.902Z,212.15
2022-10-18T04:57:26.875Z,303.70
2022-10-18T04:59:54.898Z,241.68
2022-10-18T05:02:22.911Z,298.38
2022-10-18T05:04:51.922Z,253.50
2022-10-18T05:07:21.297Z,297.02
2022-10-18T05:09:49.333Z,265.50
2022-10-18T05:12:17.345Z,270.08
2022-10-18T05:14:45.364Z,286.05
2022-10-18T05:17:13.345Z,313.30
2022-10-18T05:19:41.372Z,291.90
2022-10-18T05:22:09.352Z,232.07
2022-10-18T05:24:38.752Z,194.40
2022-10-18T05:27:06.772Z,285.77
2022-10-18T05:29:34.790Z,253.35
2022-10-18T05:32:03.190Z,285.98
2022-10-18T05:34:32.017Z,146.35
2022-10-18T05:37:00.839Z,248.32
2022-10-18T05:39:28.827Z,207.30
2022-10-18T05:41:58.581Z,253.68
2022-10-18T05:44:26.675Z,209.73
2022-10-18T05:46:54.619Z,208.98
2022-10-18T05:49:22.661Z,267.77
2022-10-18T05:51:50.686Z,268.10
2022-10-18T05:54:19.090Z,286.13
2022-10-18T05:56:47.131Z,129.40
2022-10-18T05:59:16.467Z,162.27
2022-10-18T06:01:45.532Z,244.07
2022-10-18T06:04:13.632Z,285.23
2022-10-18T06:06:41.614Z,240.82
2022-10-18T06:09:09.628Z,242.23
2022-10-18T06:11:38.096Z,257.73
2022-10-18T06:14:06.380Z,234.63
2022-10-18T06:19:08.773Z,210.23
2022-10-18T06:21:36.771Z,205.35
2022-10-18T06:24:04.994Z,189.50
2022-10-18T06:26:32.967Z,298.02
2022-10-18T06:29:01.074Z,223.20
2022-10-18T06:31:29.056Z,161.93
2022-10-18T06:33:59.089Z,209.45
2022-10-18T06:36:27.113Z,266.67
2022-10-18T06:38:56.572Z,191.48
2022-10-18T06:41:25.233Z,192.82
2022-10-18T06:43:57.334Z,184.07
2022-10-18T06:46:26.013Z,191.80
2022-10-18T06:48:54.035Z,211.18
2022-10-18T06:51:23.359Z,220.63
2022-10-18T06:54:06.180Z,147.00
2022-10-18T06:56:39.698Z,174.02
2022-10-18T06:59:07.693Z,215.32
2022-10-18T07:01:35.752Z,136.93
2022-10-18T07:04:03.880Z,217.18
2022-10-18T07:06:33.281Z,138.93
2022-10-18T07:09:03.019Z,187.35
2022-10-18T07:11:31.053Z,125.93
2022-10-18T07:14:03.138Z,159.02
2022-10-18T07:16:31.649Z,126.78
2022-10-18T07:18:59.761Z,173.35
2022-10-18T07:21:28.011Z,172.20
2022-10-18T07:23:57.954Z,125.80
2022-10-18T07:26:29.070Z,151.18
2022-10-18T07:28:59.277Z,120.38
2022-10-18T07:31:27.506Z,149.13
2022-10-18T07:33:55.697Z,136.23
2022-10-18T07:36:24.648Z,137.90
2022-10-18T07:38:53.467Z,148.80
2022-10-18T07:41:23.493Z,175.60
2022-10-18T07:43:53.603Z,138.07
2022-10-18T07:46:23.167Z,177.93
2022-10-18T07:48:51.674Z,134.98
2022-10-18T07:51:20.440Z,156.90
2022-10-18T07:53:48.966Z,151.93
2022-10-18T07:56:21.013Z,126.68
2022-10-18T07:58:52.664Z,160.93
2022-10-18T08:01:21.663Z,124.55
2022-10-18T08:03:50.183Z,148.85
2022-10-18T08:06:19.620Z,118.97
2022-10-18T08:08:47.854Z,110.00
2022-10-18T08:11:18.110Z,120.25
2022-10-18T08:13:46.271Z,112.60
2022-10-18T08:16:17.887Z,76.88
2022-10-18T08:18:46.099Z,77.45
2022-10-18T08:21:15.230Z,47.47
2022-10-18T08:23:43.953Z,31.65
2022-10-18T08:26:14.243Z,39.83
2022-10-18T08:28:49.082Z,40.92
2022-10-18T08:31:27.912Z,47.22
2022-10-18T08:33:57.385Z,34.97
2022-10-18T08:36:25.621Z,32.70
2022-10-18T08:38:53.677Z,34.72
2022-10-18T08:41:43.699Z,44.22
2022-10-18T08:44:18.698Z,30.35
2022-10-18T08:46:50.454Z,36.53
2022-10-18T08:49:28.529Z,35.67
2022-10-18T08:51:57.655Z,28.88
2022-10-18T08:54:32.703Z,31.45
2022-10-18T08:57:03.087Z,23.42
2022-10-18T08:59:39.174Z,27.58
2022-10-18T09:02:18.261Z,22.20
2022-10-18T09:04:51.782Z,27.30
2022-10-18T09:07:36.768Z,24.38
2022-10-18T09:10:17.344Z,22.23
2022-10-18T09:13:01.226Z,22.33
2022-10-18T09:15:37.939Z,21.05
2022-10-18T09:18:18.711Z,20.77
2022-10-18T09:20:55.045Z,20.48
2022-10-18T09:23:26.545Z,19.83
2022-10-18T09:26:02.537Z,22.52
2022-10-18T09:28:41.236Z,20.52
2022-10-18T09:31:17.053Z,19.48
2022-10-18T09:33:52.347Z,16.40
2022-10-18T09:36:23.879Z,17.80
2022-10-18T09:38:57.173Z,16.20
2022-10-18T09:41:33.106Z,15.65
2022-10-18T09:44:07.291Z,16.33
2022-10-18T09:46:39.865Z,17.08
2022-10-18T09:49:16.347Z,21.55
2022-10-18T09:51:46.054Z,19.60
2022-10-18T09:54:22.854Z,15.85
2022-10-18T09:56:53.633Z,19.05
2022-10-18T09:59:33.720Z,15.88
2022-10-18T10:02:01.794Z,13.55
2022-10-18T10:04:31.213Z,17.02
2022-10-18T10:07:02.582Z,17.83
2022-10-18T10:09:32.614Z,16.33
2022-10-18T10:12:00.839Z,15.15
2022-10-18T10:14:30.791Z,15.75
2022-10-18T10:17:02.211Z,17.98
2022-10-18T10:19:34.115Z,20.85
2022-10-18T10:22:06.530Z,16.05
2022-10-18T10:24:41.585Z,15.57
2022-10-18T10:27:20.433Z,18.02
2022-10-18T10:30:01.417Z,15.45
2022-10-18T10:32:33.150Z,12.68
2022-10-18T10:35:02.573Z,13.98
2022-10-18T10:37:35.832Z,15.02
2022-10-18T10:40:24.110Z,13.82
2022-10-18T10:43:18.454Z,17.33
2022-10-18T10:46:03.436Z,15.38
2022-10-18T10:48:34.686Z,17.42
2022-10-18T10:51:07.258Z,14.52
2022-10-18T10:53:40.681Z,17.90
2022-10-18T10:56:32.295Z,15.85
2022-10-18T10:59:09.170Z,12.32
2022-10-18T11:01:37.589Z,14.88
2022-10-18T11:04:26.862Z,20.92
2022-10-18T11:07:13.842Z,18.17
2022-10-18T11:10:01.626Z,16.02
2022-10-18T11:12:34.698Z,17.42
2022-10-18T11:15:23.422Z,18.05
2022-10-18T11:18:04.080Z,16.60
2022-10-18T11:20:37.931Z,15.95
2022-10-18T11:23:11.462Z,13.52
2022-10-18T11:25:56.266Z,14.73
2022-10-18T11:28:33.746Z,17.20
2022-10-18T11:31:15.386Z,18.75
2022-10-18T11:34:08.605Z,14.23
2022-10-18T11:36:54.707Z,17.90
2022-10-18T11:39:42.364Z,16.27
2022-10-18T11:42:20.598Z,10.63
2022-10-18T11:44:56.907Z,12.80
2022-10-18T11:47:33.171Z,18.45
2022-10-18T11:50:12.963Z,12.23
2022-10-18T11:52:49.107Z,14.68
2022-10-18T11:55:37.867Z,17.60
2022-10-18T11:58:35.298Z,11.20
2022-10-18T12:01:12.656Z,21.30
2022-10-18T12:03:55.230Z,13.07
2022-10-18T12:06:27.441Z,15.88
2022-10-18T12:08:59.841Z,15.10
2022-10-18T12:11:33.002Z,18.30
2022-10-18T12:14:03.274Z,16.52
2022-10-18T12:16:51.073Z,14.60
2022-10-18T12:19:26.395Z,9.52
2022-10-18T12:21:57.539Z,15.02
2022-10-18T12:24:28.692Z,17.50
2022-10-18T12:27:01.305Z,12.63
2022-10-18T12:29:33.015Z,13.18
2022-10-18T12:32:04.307Z,13.13
2022-10-18T12:34:37.030Z,10.55
2022-10-18T12:37:31.275Z,12.23
2022-10-18T12:40:11.130Z,14.05
2022-10-18T12:42:48.076Z,11.68
2022-10-18T12:45:33.087Z,13.05
2022-10-18T12:48:02.399Z,12.40
2022-10-18T12:50:38.971Z,14.82
2022-10-18T12:53:20.179Z,18.10
2022-10-18T12:55:51.376Z,17.15
2022-10-18T12:58:30.075Z,11.40
2022-10-18T13:01:04.546Z,15.75
2022-10-18T13:03:58.578Z,12.35
2022-10-18T13:06:26.700Z,12.65
2022-10-18T13:09:20.514Z,14.85
2022-10-18T13:11:49.062Z,15.25
2022-10-18T13:15:12.781Z,18.88
2022-10-18T13:17:53.912Z,17.85
2022-10-18T13:20:27.876Z,12.73
2022-10-18T13:23:24.356Z,12.40
2022-10-18T13:25:59.791Z,10.48
2022-10-18T13:28:33.343Z,17.65
2022-10-18T13:31:20.486Z,12.82
2022-10-18T13:33:48.875Z,13.73
2022-10-18T13:36:24.809Z,13.75
2022-10-18T13:39:05.904Z,12.70
2022-10-18T13:41:57.414Z,10.55
2022-10-18T13:44:30.548Z,15.13
2022-10-18T13:47:36.154Z,11.40
2022-10-18T13:50:31.091Z,14.40
2022-10-18T13:53:33.929Z,15.93
2022-10-18T13:56:26.677Z,12.88
2022-10-18T13:59:14.329Z,11.15
2022-10-18T14:01:56.260Z,13.52
2022-10-18T14:04:41.578Z,13.45
2022-10-18T14:07:11.402Z,11.20
2022-10-18T14:09:48.855Z,13.43
2022-10-18T14:12:27.662Z,16.40
2022-10-18T14:15:03.267Z,13.15
2022-10-18T14:17:40.938Z,15.45
2022-10-18T14:20:19.746Z,12.73
2022-10-18T14:22:52.422Z,16.27
2022-10-18T14:25:23.624Z,15.65
2022-10-18T14:28:07.754Z,12.73
2022-10-18T14:30:37.429Z,16.75
2022-10-18T14:33:06.971Z,10.07
2022-10-18T14:35:35.773Z,15.52
2022-10-18T14:38:04.326Z,18.10
2022-10-18T14:40:38.140Z,12.57
2022-10-18T14:43:11.785Z,13.20
2022-10-18T14:45:39.905Z,16.65
2022-10-18T14:48:15.839Z,15.35
2022-10-18T14:50:44.869Z,15.05
2022-10-18T14:53:18.675Z,15.93
2022-10-18T14:55:54.571Z,16.83
2022-10-18T14:58:23.275Z,14.27
2022-10-18T15:00:51.495Z,14.98
2022-10-18T15:03:21.343Z,18.67
2022-10-18T15:05:59.349Z,15.27
2022-10-18T15:08:30.649Z,10.80
2022-10-18T15:10:58.973Z,14.40
2022-10-18T15:13:27.401Z,15.15
2022-10-18T15:15:56.687Z,14.13
2022-10-18T15:18:27.922Z,16.10
2022-10-18T15:21:09.816Z,14.55
2022-10-18T15:23:37.938Z,13.32
2022-10-18T15:26:08.568Z,14.35
2022-10-18T15:28:49.369Z,14.15
2022-10-18T15:31:25.081Z,15.32
2022-10-18T15:33:56.346Z,11.93
2022-10-18T15:36:32.923Z,13.95
2022-10-18T15:39:09.570Z,14.30
2022-10-18T15:41:42.260Z,19.65
2022-10-18T15:44:21.879Z,17.20
2022-10-18T15:46:52.865Z,16.88
2022-10-18T15:49:58.222Z,10.80
2022-10-18T15:52:37.784Z,12.15
2022-10-18T15:55:47.791Z,11.70
2022-10-18T15:58:22.222Z,10.18
2022-10-18T16:00:51.875Z,10.18
2022-10-18T16:03:22.269Z,13.30
2022-10-18T16:05:51.068Z,13.77
2022-10-18T16:08:25.235Z,15.30
2022-10-18T16:10:53.990Z,15.15
2022-10-18T16:13:22.026Z,15.45
2022-10-18T16:15:50.034Z,12.23
2022-10-18T16:18:20.192Z,13.43
2022-10-18T16:20:49.134Z,13.35
2022-10-18T16:23:19.368Z,19.35
2022-10-18T16:25:49.100Z,13.90
2022-10-18T16:28:19.773Z,13.70
2022-10-18T16:30:54.727Z,15.10
2022-10-18T16:33:22.808Z,8.80
2022-10-18T16:35:50.979Z,12.10
2022-10-18T16:38:31.089Z,13.45
2022-10-18T16:41:04.054Z,12.70
2022-10-18T16:43:32.586Z,11.48
2022-10-18T16:46:00.554Z,17.27
2022-10-18T16:48:29.189Z,14.00
2022-10-18T16:50:57.883Z,14.60
2022-10-18T16:53:26.327Z,17.13
2022-10-18T16:55:57.065Z,15.90
2022-10-18T16:58:28.514Z,17.42
2022-10-18T17:00:56.928Z,12.25
2022-10-18T17:03:28.225Z,13.15
2022-10-18T17:05:59.176Z,13.77
2022-10-18T17:08:29.133Z,14.20
2022-10-18T17:11:01.759Z,10.75
2022-10-18T17:13:31.238Z,14.68
2022-10-18T17:16:03.766Z,12.52
2022-10-18T17:18:35.109Z,11.02
2022-10-18T17:21:03.426Z,15.45
2022-10-18T17:23:31.562Z,13.18
2022-10-18T17:26:06.769Z,14.40
2022-10-18T17:28:38.839Z,13.82
2022-10-18T17:31:08.256Z,13.48
2022-10-18T17:33:36.467Z,13.38
2022-10-18T17:36:04.984Z,15.02
2022-10-18T17:38:33.034Z,10.68
2022-10-18T17:41:01.336Z,17.67
2022-10-18T17:43:29.378Z,10.38
2022-10-18T17:45:58.779Z,13.73
2022-10-18T17:48:28.265Z,13.27
2022-10-18T17:50:56.713Z,9.63
2022-10-18T17:53:28.466Z,12.15
2022-10-18T17:56:02.402Z,11.98
2022-10-18T17:58:31.513Z,12.13
2022-10-18T18:01:09.823Z,13.45
2022-10-18T18:03:37.946Z,13.43
2022-10-18T18:06:16.725Z,11.05
2022-10-18T18:08:44.853Z,14.40
2022-10-18T18:11:12.973Z,9.32
2022-10-18T18:13:41.251Z,15.75
2022-10-18T18:16:16.692Z,9.15
2022-10-18T18:18:45.064Z,9.85
2022-10-18T18:21:13.449Z,12.50
2022-10-18T18:23:41.572Z,10.70
2022-10-18T18:26:09.830Z,9.68
2022-10-18T18:28:38.381Z,10.60
2022-10-18T18:31:07.697Z,11.70
2022-10-18T18:33:37.712Z,11.80
2022-10-18T18:36:06.995Z,11.73
2022-10-18T18:38:37.370Z,6.40
2022-10-18T18:41:10.324Z,11.50
2022-10-18T18:43:39.526Z,9.57
2022-10-18T18:46:08.047Z,9.43
2022-10-18T18:48:37.967Z,11.50
2022-10-18T18:51:09.822Z,8.73
2022-10-18T18:53:39.144Z,9.98
2022-10-18T18:56:10.767Z,13.80
2022-10-18T18:58:40.096Z,10.65
2022-10-18T19:01:09.175Z,11.27
2022-10-18T19:03:40.253Z,11.85
2022-10-18T19:06:10.887Z,6.30
2022-10-18T19:08:40.246Z,8.85
2022-10-18T19:11:09.636Z,11.75
2022-10-18T19:13:37.830Z,7.50
2022-10-18T19:16:20.362Z,11.43
2022-10-18T19:18:58.253Z,7.90
2022-10-18T19:21:28.884Z,10.07
2022-10-18T19:23:57.764Z,11.50
2022-10-18T19:26:32.071Z,11.18
2022-10-18T19:29:09.581Z,12.02
2022-10-18T19:31:38.337Z,8.90
2022-10-18T19:34:09.494Z,12.77
2022-10-18T19:36:38.566Z,8.98
2022-10-18T19:39:09.919Z,8.43
2022-10-18T19:41:37.967Z,9.98
2022-10-18T19:44:06.464Z,12.85
2022-10-18T19:46:34.478Z,8.68
2022-10-18T19:49:02.529Z,6.05
2022-10-18T19:51:31.939Z,10.55
2022-10-18T19:54:00.189Z,8.43
2022-10-18T19:56:29.153Z,9.75
2022-10-18T19:58:57.852Z,8.32
2022-10-18T20:01:27.360Z,9.23
2022-10-18T20:03:55.942Z,10.25
2022-10-18T20:06:24.400Z,8.77
2022-10-18T20:08:54.050Z,10.48
2022-10-18T20:11:24.286Z,7.93
2022-10-18T20:13:52.583Z,9.55
2022-10-18T20:16:27.703Z,9.30
2022-10-18T20:18:57.627Z,14.65
2022-10-18T20:21:26.462Z,11.38
2022-10-18T20:23:55.930Z,13.00
2022-10-18T20:26:25.603Z,11.05
2022-10-18T20:28:57.747Z,10.38
2022-10-18T20:31:27.753Z,10.13
2022-10-18T20:33:57.458Z,12.73
2022-10-18T20:36:26.473Z,14.05
2022-10-18T20:38:56.172Z,11.60
2022-10-18T20:41:26.651Z,11.95
2022-10-18T20:43:56.127Z,9.70
2022-10-18T20:46:24.848Z,10.13
2022-10-18T20:48:53.915Z,15.63
2022-10-18T20:51:22.660Z,13.13
2022-10-18T20:53:51.359Z,14.85
2022-10-18T20:56:23.223Z,15.35
2022-10-18T20:58:52.582Z,14.30
2022-10-18T21:01:23.461Z,13.57
2022-10-18T21:03:54.209Z,13.05
2022-10-18T21:06:23.898Z,12.93
2022-10-18T21:08:54.517Z,12.98
2022-10-18T21:11:24.767Z,11.15
2022-10-18T21:13:53.261Z,15.20
2022-10-18T21:16:21.351Z,14.23
2022-10-18T21:18:50.144Z,12.85
2022-10-18T21:21:22.982Z,13.93
2022-10-18T21:23:51.857Z,13.43
2022-10-18T21:26:22.108Z,11.73
2022-10-18T21:28:52.946Z,9.73
2022-10-18T21:31:23.205Z,14.98
2022-10-18T21:33:54.909Z,8.98
2022-10-18T21:36:23.577Z,10.68
2022-10-18T21:38:51.690Z,15.32
2022-10-18T21:41:21.370Z,12.95
2022-10-18T21:43:53.072Z,14.20
2022-10-18T21:46:23.090Z,11.52
2022-10-18T21:48:53.365Z,10.57
2022-10-18T21:51:23.082Z,13.95
2022-10-18T21:53:53.465Z,12.13
2022-10-18T21:56:23.458Z,15.27
2022-10-18T21:58:52.985Z,7.75
2022-10-18T22:01:23.666Z,16.20
2022-10-18T22:03:53.308Z,9.63
2022-10-18T22:06:22.117Z,13.93
2022-10-18T22:08:52.620Z,9.30
2022-10-18T22:11:23.910Z,12.88
2022-10-18T22:13:54.153Z,8.32
2022-10-18T22:16:22.782Z,21.17
2022-10-18T22:18:51.969Z,18.23
2022-10-18T22:21:21.743Z,15.35
2022-10-18T22:23:54.211Z,10.18
2022-10-18T22:26:23.575Z,12.90
2022-10-18T22:28:57.538Z,11.23
2022-10-18T22:31:28.099Z,15.25
2022-10-18T22:33:57.279Z,10.73
2022-10-18T22:36:25.831Z,14.38
2022-10-18T22:38:54.153Z,12.48
2022-10-18T22:41:22.225Z,12.93
2022-10-18T22:43:51.538Z,14.18
2022-10-18T22:46:21.227Z,13.20
2022-10-18T22:48:49.853Z,11.63
2022-10-18T22:51:18.306Z,11.63
2022-10-18T22:53:46.913Z,10.02
2022-10-18T22:56:17.627Z,10.13
2022-10-18T22:58:45.826Z,15.00
2022-10-18T23:01:15.800Z,13.98
2022-10-18T23:03:45.202Z,16.75
2022-10-18T23:06:21.464Z,9.93
2022-10-18T23:08:49.914Z,11.80
2022-10-18T23:11:18.271Z,13.35
2022-10-18T23:13:46.532Z,8.88
2022-10-18T23:16:15.289Z,8.02
2022-10-18T23:18:45.503Z,8.48
2022-10-18T23:21:15.196Z,7.53
2022-10-18T23:23:43.936Z,9.95
2022-10-18T23:26:14.637Z,6.45
2022-10-18T23:28:44.988Z,10.73
2022-10-18T23:31:14.842Z,8.45
2022-10-18T23:33:42.887Z,8.20
2022-10-18T23:36:12.375Z,4.30
2022-10-18T23:38:40.950Z,11.50
2022-10-18T23:41:10.790Z,12.27
2022-10-18T23:43:39.478Z,10.98
2022-10-18T23:46:08.365Z,7.00
2022-10-18T23:48:37.001Z,7.88
2022-10-18T23:51:05.801Z,13.52
2022-10-18T23:53:35.598Z,9.60
2022-10-18T23:56:06.229Z,9.05
2022-10-18T23:58:35.826Z,10.05
